createdAt,value
2019-02-25T04:28:48.363Z,25.97
2019-02-25T10:04:50.563Z,42.23
2019-02-25T10:07:54.635Z,42.13
2019-02-25T10:10:58.537Z,46.47
2019-02-25T10:14:02.516Z,43.73
2019-02-25T10:17:06.386Z,42.90
2019-02-25T10:20:10.640Z,41.10
2019-02-25T10:23:14.481Z,41.73
2019-02-25T10:26:18.403Z,48.47
2019-02-25T10:29:22.965Z,47.23
2019-02-25T10:32:27.960Z,58.57
2019-02-25T10:35:32.372Z,54.17
2019-02-25T10:38:37.542Z,54.37
2019-02-25T10:41:41.591Z,53.40
2019-02-25T10:44:45.422Z,59.23
2019-02-25T10:47:51.163Z,58.13
2019-02-25T10:50:56.320Z,53.80
2019-02-25T10:54:00.256Z,45.60
2019-02-25T10:57:07.463Z,48.60
2019-02-25T11:00:13.848Z,45.70
2019-02-25T11:03:19.504Z,49.30
2019-02-25T11:06:25.022Z,47.40
2019-02-25T11:09:42.037Z,45.73
2019-02-25T11:12:46.029Z,45.60
2019-02-25T11:15:49.847Z,44.07
2019-02-25T11:18:55.073Z,43.43
2019-02-25T11:21:59.247Z,44.73
2019-02-25T11:25:03.361Z,41.40
2019-02-25T11:28:09.297Z,40.37
2019-02-25T11:31:12.958Z,42.27
2019-02-25T11:34:16.776Z,38.30
2019-02-25T11:37:22.491Z,36.67
2019-02-25T11:40:28.302Z,35.20
2019-02-25T11:43:32.041Z,36.30
2019-02-25T11:46:35.929Z,36.47
2019-02-25T11:49:39.925Z,38.47
2019-02-25T11:52:43.841Z,32.30
2019-02-25T11:55:47.757Z,35.47
2019-02-25T11:58:51.664Z,35.27
2019-02-25T12:01:55.578Z,35.63
2019-02-25T12:04:59.428Z,34.97
2019-02-25T12:08:03.330Z,33.90
2019-02-25T12:11:08.689Z,31.90
2019-02-25T12:14:12.631Z,32.37
2019-02-25T12:17:16.444Z,33.07
2019-02-25T12:20:20.596Z,31.57
2019-02-25T12:23:24.468Z,30.07
2019-02-25T12:26:28.297Z,28.87
2019-02-25T12:29:32.202Z,26.70
2019-02-25T12:32:36.086Z,25.30
2019-02-25T12:35:39.883Z,26.27
2019-02-25T12:38:43.795Z,26.50
2019-02-25T12:41:47.628Z,26.40
2019-02-25T12:44:51.533Z,25.80
2019-02-25T12:47:55.443Z,24.03
2019-02-25T12:50:59.271Z,21.60
2019-02-25T12:54:03.161Z,28.50
2019-02-25T12:57:06.948Z,31.03
2019-02-25T13:00:12.609Z,28.50
2019-02-25T13:03:16.424Z,27.53
2019-02-25T13:06:20.281Z,27.70
2019-02-25T13:09:24.083Z,28.10
2019-02-25T13:12:27.919Z,28.83
2019-02-25T13:15:31.764Z,32.70
2019-02-25T13:18:35.578Z,36.37
2019-02-25T13:21:39.391Z,36.57
2019-02-25T13:24:43.290Z,36.03
2019-02-25T13:27:47.109Z,38.20
2019-02-25T13:30:50.952Z,39.13
2019-02-25T13:33:54.758Z,38.00
2019-02-25T13:36:58.708Z,39.73
2019-02-25T13:40:02.620Z,40.97
2019-02-25T13:43:06.543Z,41.20
2019-02-25T13:46:10.543Z,42.10
2019-02-25T13:49:14.716Z,40.13
2019-02-25T13:52:18.580Z,41.37
2019-02-25T13:55:22.507Z,38.03
2019-02-25T13:58:26.316Z,36.33
2019-02-25T14:01:30.157Z,36.30
2019-02-25T14:04:33.949Z,35.77
2019-02-25T14:07:37.760Z,41.60
2019-02-25T14:10:41.593Z,43.00
2019-02-25T14:13:45.524Z,39.97
2019-02-25T14:16:49.466Z,43.00
2019-02-25T14:19:53.404Z,39.10
2019-02-25T14:23:00.314Z,45.07
2019-02-25T14:26:02.768Z,42.33
2019-02-25T14:29:07.001Z,41.17
2019-02-25T14:32:11.531Z,43.90
2019-02-25T14:35:16.664Z,43.87
2019-02-25T14:38:22.718Z,44.93
2019-02-25T14:41:26.215Z,42.70
2019-02-25T14:44:33.128Z,41.30
2019-02-25T14:47:37.583Z,42.80
2019-02-25T14:50:41.885Z,40.90
2019-02-25T14:53:47.434Z,40.43
2019-02-25T14:56:52.726Z,42.63
2019-02-25T14:59:57.022Z,42.00
2019-02-25T15:03:00.853Z,41.73
2019-02-25T15:06:04.833Z,42.07
2019-02-25T15:09:11.921Z,41.30
2019-02-25T15:12:14.771Z,41.07
2019-02-25T15:15:18.886Z,41.33
2019-02-25T15:18:25.212Z,41.00
2019-02-25T15:21:29.317Z,41.03
2019-02-25T15:24:33.320Z,41.33
2019-02-25T15:27:37.236Z,42.23
2019-02-25T15:30:41.171Z,40.43
2019-02-25T15:33:45.241Z,36.50
2019-02-25T15:36:49.108Z,36.03
2019-02-25T15:39:52.938Z,37.80
2019-02-25T15:43:04.791Z,36.97
2019-02-25T15:46:10.444Z,38.63
2019-02-25T15:49:15.143Z,38.23
2019-02-25T15:52:20.991Z,37.73
2019-02-25T15:55:27.575Z,38.60
2019-02-25T15:58:31.697Z,36.53
2019-02-25T16:01:35.733Z,38.17
2019-02-25T16:04:40.287Z,37.67
2019-02-25T16:07:45.272Z,37.73
2019-02-25T16:10:51.145Z,37.33
2019-02-25T16:13:55.697Z,36.07
2019-02-25T16:17:00.630Z,36.57
2019-02-25T16:20:06.785Z,37.07
2019-02-25T16:23:10.557Z,38.63
2019-02-25T16:26:18.366Z,36.80
2019-02-25T16:29:21.974Z,35.67
2019-02-25T16:32:26.256Z,41.63
2019-02-25T16:35:30.326Z,38.33
2019-02-25T16:38:36.405Z,37.90
2019-02-25T16:41:41.745Z,37.10
2019-02-25T16:44:46.275Z,37.20
2019-02-25T16:47:50.339Z,36.20
2019-02-25T16:50:54.264Z,40.53
2019-02-25T16:53:58.217Z,44.00
2019-02-25T16:57:02.360Z,38.13
2019-02-25T17:00:10.313Z,41.03
2019-02-25T17:03:15.989Z,47.63
2019-02-25T17:06:19.777Z,58.77
2019-02-25T17:09:27.496Z,74.87
2019-02-25T17:12:31.643Z,71.93
2019-02-25T17:15:38.296Z,44.73
2019-02-25T17:18:46.077Z,49.00
2019-02-25T17:21:48.100Z,39.57
2019-02-25T17:24:56.500Z,40.90
2019-02-25T17:28:00.630Z,50.40
2019-02-25T17:31:06.149Z,47.83
2019-02-25T17:34:12.089Z,53.63
2019-02-25T17:37:17.174Z,47.20
2019-02-25T17:40:21.397Z,42.27
2019-02-25T17:43:25.612Z,39.93
2019-02-25T17:46:32.586Z,36.53
2019-02-25T17:49:35.818Z,39.50
2019-02-25T17:52:42.540Z,40.70
2019-02-25T17:55:46.284Z,39.63
2019-02-25T17:58:50.105Z,45.13
2019-02-25T18:01:54.032Z,68.43
2019-02-25T18:04:58.001Z,55.60
2019-02-25T18:08:03.027Z,57.60
2019-02-25T18:11:07.946Z,48.17
2019-02-25T18:14:13.387Z,51.30
2019-02-25T18:17:19.349Z,57.80
2019-02-25T18:20:23.700Z,50.23
2019-02-25T18:23:27.709Z,46.27
2019-02-25T18:26:31.533Z,45.57
2019-02-25T18:29:35.371Z,45.90
2019-02-25T18:32:39.590Z,46.63
2019-02-25T18:35:45.615Z,56.53
2019-02-25T18:38:50.671Z,45.40
2019-02-25T18:41:55.532Z,44.57
2019-02-25T18:45:00.485Z,41.00
2019-02-25T18:48:04.441Z,43.60
2019-02-25T18:51:08.387Z,46.00
2019-02-25T18:54:12.337Z,48.70
2019-02-25T18:57:16.332Z,46.47
2019-02-25T19:00:28.435Z,48.13
2019-02-25T19:03:33.299Z,45.37
2019-02-25T19:06:39.287Z,47.97
2019-02-25T19:09:45.235Z,50.00
2019-02-25T19:12:49.645Z,46.13
2019-02-25T19:15:56.891Z,51.83
2019-02-25T19:19:03.596Z,50.00
2019-02-25T19:22:08.113Z,46.03
2019-02-25T19:25:15.791Z,44.97
2019-02-25T19:28:21.415Z,45.93
2019-02-25T19:31:26.561Z,45.90
2019-02-25T19:34:30.905Z,40.90
2019-02-25T19:37:38.231Z,42.40
2019-02-25T19:40:43.245Z,43.03
2019-02-25T19:43:48.509Z,46.37
2019-02-25T19:46:53.814Z,42.97
2019-02-25T19:49:59.576Z,40.67
2019-02-25T19:53:05.262Z,43.27
2019-02-25T19:56:09.971Z,41.10
2019-02-25T19:59:13.934Z,58.50
2019-02-25T20:02:17.956Z,49.17
2019-02-25T20:05:24.036Z,51.43
2019-02-25T20:08:27.938Z,51.27
2019-02-25T20:11:31.950Z,53.10
2019-02-25T20:14:36.473Z,74.33
2019-02-25T20:17:40.530Z,55.90
2019-02-25T20:20:44.601Z,61.73
2019-02-25T20:23:50.100Z,54.67
2019-02-25T20:26:59.701Z,49.83
2019-02-25T20:30:03.185Z,50.47
2019-02-25T20:33:08.734Z,46.23
2019-02-25T20:36:17.175Z,47.10
2019-02-25T20:39:19.902Z,46.37
2019-02-25T20:42:25.838Z,44.70
2019-02-25T20:45:31.012Z,44.57
2019-02-25T20:48:36.563Z,45.83
2019-02-25T20:51:40.807Z,44.50
2019-02-25T20:54:48.017Z,43.03
2019-02-25T20:57:52.199Z,42.23
2019-02-25T21:00:56.656Z,41.67
